Lansdowne House, Canada
Current Conditions -  °F | °C
As of 2:00 PM on Tuesday 21 Oct 2014 (Local Time) from CYLH Reporting Station
Few Clouds Few Clouds  
Wind Chill: 33°   Ceiling: Unl
Heat Index: 39°   Visibility: 9mi
Dew Point: 34°   Wind: 9mph
Humidity: 81%   Direction: 220°SW
Pressure: 30.23"   Gusts: NA
Location:  52.21°N, 87.89°W
Report Text: CYLH 211800Z AUTO 22008KT 160V240 9SM FEW015 04/01 A3023 RMK SLP252
Loading
Personal Weather Stations






























Interactive Weather Map
Tropical Storm Tracking
New forecast layout! Learn more

10-Day Weather Forecast

Advertisements
Track Severe Weather on mobile